createdAt,value
2017-12-19T00:00:33.010Z,35.97
2017-12-19T00:03:00.246Z,39.33
2017-12-19T00:05:27.565Z,39.38
2017-12-19T00:07:54.859Z,36.00
2017-12-19T00:10:25.561Z,39.95
2017-12-19T00:12:52.796Z,36.45
2017-12-19T00:15:20.024Z,42.88
2017-12-19T00:17:47.258Z,38.28
2017-12-19T00:20:14.485Z,43.40
2017-12-19T00:22:41.810Z,46.90
2017-12-19T00:25:09.918Z,45.65
2017-12-19T00:27:37.235Z,46.20
2017-12-19T00:30:04.454Z,43.95
2017-12-19T00:32:31.782Z,74.53
2017-12-19T00:34:59.031Z,52.83
2017-12-19T00:37:26.285Z,47.33
2017-12-19T00:39:53.523Z,38.22
2017-12-19T00:42:20.851Z,42.67
2017-12-19T00:44:48.099Z,49.35
2017-12-19T00:47:15.313Z,43.95
2017-12-19T00:49:42.549Z,53.38
2017-12-19T00:52:09.856Z,46.70
2017-12-19T00:54:37.079Z,44.63
2017-12-19T00:57:04.314Z,40.35
2017-12-19T00:59:31.541Z,39.70
2017-12-19T01:01:58.864Z,35.60
2017-12-19T01:04:26.090Z,37.15
2017-12-19T01:06:53.313Z,37.55
2017-12-19T01:09:20.762Z,43.42
2017-12-19T01:11:47.947Z,44.45
2017-12-19T01:14:15.182Z,39.45
2017-12-19T01:16:42.414Z,36.08
2017-12-19T01:19:09.654Z,40.60
2017-12-19T01:21:36.877Z,40.65
2017-12-19T01:24:04.109Z,42.58
2017-12-19T01:26:31.329Z,47.20
2017-12-19T01:28:58.556Z,41.10
2017-12-19T01:31:25.887Z,46.37
2017-12-19T01:33:53.136Z,49.63
2017-12-19T01:36:20.355Z,57.17
2017-12-19T01:38:47.577Z,60.33
2017-12-19T01:41:14.810Z,64.72
2017-12-19T01:43:42.026Z,67.60
2017-12-19T01:46:09.258Z,70.30
2017-12-19T01:48:36.486Z,71.43
2017-12-19T01:51:03.798Z,66.50
2017-12-19T01:53:31.016Z,70.75
2017-12-19T01:55:58.242Z,70.78
2017-12-19T01:58:25.465Z,59.15
2017-12-19T02:00:52.703Z,55.30
2017-12-19T02:03:19.930Z,56.90
2017-12-19T02:05:47.161Z,57.17
2017-12-19T02:08:14.389Z,57.65
2017-12-19T02:10:41.625Z,58.67
2017-12-19T02:13:08.899Z,54.05
2017-12-19T02:15:36.149Z,69.32
2017-12-19T02:18:03.399Z,50.95
2017-12-19T02:20:30.642Z,51.17
2017-12-19T02:22:57.862Z,45.20
2017-12-19T02:25:25.097Z,48.65
2017-12-19T02:27:52.317Z,48.28
2017-12-19T02:30:19.612Z,45.90
2017-12-19T02:32:46.875Z,47.85
2017-12-19T02:35:14.170Z,45.85
2017-12-19T02:37:41.402Z,44.53
2017-12-19T02:40:08.630Z,39.55
2017-12-19T02:42:47.760Z,41.22
2017-12-19T02:45:15.053Z,40.40
2017-12-19T02:47:42.290Z,45.08
2017-12-19T02:50:09.523Z,47.53
2017-12-19T02:52:36.758Z,44.47
2017-12-19T02:55:04.055Z,46.08
2017-12-19T02:57:31.301Z,49.03
2017-12-19T02:59:58.575Z,43.42
2017-12-19T03:02:25.966Z,45.53
2017-12-19T03:04:53.170Z,45.00
2017-12-19T03:07:20.406Z,44.30
2017-12-19T03:09:47.630Z,51.88
2017-12-19T03:12:14.863Z,46.60
2017-12-19T03:14:42.087Z,54.38
2017-12-19T03:17:09.323Z,47.00
2017-12-19T03:19:36.590Z,45.40
2017-12-19T03:22:03.817Z,41.72
2017-12-19T03:24:31.041Z,40.00
2017-12-19T03:26:58.273Z,48.03
2017-12-19T03:29:25.494Z,52.58
2017-12-19T03:31:52.725Z,52.08
2017-12-19T03:34:20.050Z,43.08
2017-12-19T03:36:47.275Z,43.17
2017-12-19T03:39:14.486Z,42.70
2017-12-19T03:41:41.730Z,46.72
2017-12-19T03:44:08.994Z,42.05
2017-12-19T03:46:36.228Z,49.17
2017-12-19T03:49:03.462Z,49.58
2017-12-19T03:51:30.710Z,50.85
2017-12-19T03:53:58.529Z,48.63
2017-12-19T03:56:25.872Z,52.95
2017-12-19T03:58:53.182Z,44.90
2017-12-19T04:01:20.394Z,46.37
2017-12-19T04:03:47.625Z,52.58
2017-12-19T04:06:14.850Z,50.53
2017-12-19T04:08:42.127Z,44.05
2017-12-19T04:11:09.390Z,39.70
2017-12-19T04:13:36.734Z,42.38
2017-12-19T04:16:03.953Z,48.25
2017-12-19T04:18:31.187Z,44.90
2017-12-19T04:20:58.448Z,42.38
2017-12-19T04:23:25.681Z,44.17
2017-12-19T04:25:52.901Z,43.90
2017-12-19T04:28:20.141Z,45.95
2017-12-19T04:30:47.370Z,47.20
2017-12-19T04:33:14.593Z,50.35
2017-12-19T04:35:41.816Z,47.08
2017-12-19T04:38:09.149Z,50.12
2017-12-19T04:40:36.401Z,50.92
2017-12-19T04:43:03.642Z,45.22
2017-12-19T04:45:30.870Z,52.28
2017-12-19T04:47:58.148Z,47.47
2017-12-19T04:50:25.370Z,47.95
2017-12-19T04:52:52.669Z,46.83
2017-12-19T04:55:19.905Z,48.87
2017-12-19T04:57:47.134Z,45.53
2017-12-19T05:00:14.370Z,46.95
2017-12-19T05:02:41.589Z,47.00
2017-12-19T05:05:08.921Z,41.70
2017-12-19T05:07:36.144Z,47.13
2017-12-19T05:10:03.433Z,46.50
2017-12-19T05:12:30.665Z,43.58
2017-12-19T05:14:57.905Z,37.60
2017-12-19T05:17:25.133Z,41.90
2017-12-19T05:19:52.439Z,41.83
2017-12-19T05:22:19.664Z,43.15
2017-12-19T05:24:46.934Z,44.67
2017-12-19T05:27:14.163Z,42.78
2017-12-19T05:29:41.500Z,43.85
2017-12-19T05:32:08.714Z,43.55
2017-12-19T05:34:36.010Z,45.20
2017-12-19T05:37:03.181Z,41.47
2017-12-19T05:39:30.449Z,46.00
2017-12-19T05:41:57.801Z,53.78
2017-12-19T05:44:25.043Z,48.20
2017-12-19T05:46:52.277Z,51.33
2017-12-19T05:49:19.553Z,63.20
2017-12-19T05:51:46.785Z,61.88
2017-12-19T05:54:14.031Z,61.13
2017-12-19T05:56:41.260Z,52.55
2017-12-19T05:59:08.498Z,52.17
2017-12-19T06:01:35.738Z,62.05
2017-12-19T06:04:02.969Z,68.10
2017-12-19T06:06:30.217Z,72.10
2017-12-19T06:08:57.448Z,69.07
2017-12-19T06:11:24.681Z,65.40
2017-12-19T06:13:51.917Z,67.32
2017-12-19T06:16:19.154Z,69.32
2017-12-19T06:18:46.482Z,67.15
2017-12-19T06:21:13.722Z,69.57
2017-12-19T06:23:40.954Z,58.05
2017-12-19T06:26:08.207Z,76.78
2017-12-19T06:28:35.444Z,65.15
2017-12-19T06:31:02.673Z,52.15
2017-12-19T06:33:29.901Z,61.17
2017-12-19T06:35:57.139Z,54.47
2017-12-19T06:38:24.389Z,62.45
2017-12-19T06:40:51.697Z,60.65
2017-12-19T06:43:18.996Z,60.97
2017-12-19T06:45:46.231Z,59.95
2017-12-19T06:48:13.458Z,55.97
2017-12-19T06:50:40.709Z,53.08
2017-12-19T06:53:07.945Z,63.30
2017-12-19T06:55:35.182Z,73.25
2017-12-19T06:58:02.413Z,57.15
2017-12-19T07:00:29.653Z,56.00
2017-12-19T07:02:56.917Z,60.15
2017-12-19T07:05:24.163Z,60.35
2017-12-19T07:07:51.407Z,60.53
2017-12-19T07:10:18.637Z,52.85
2017-12-19T07:12:45.879Z,54.08
2017-12-19T07:15:13.112Z,62.83
2017-12-19T07:17:40.417Z,51.55
2017-12-19T07:20:07.683Z,50.78
2017-12-19T07:22:34.923Z,48.75
2017-12-19T07:25:02.168Z,51.90
2017-12-19T07:27:29.402Z,54.70
2017-12-19T07:29:56.634Z,47.80
2017-12-19T07:32:23.870Z,49.67
2017-12-19T07:34:51.098Z,66.57
2017-12-19T07:37:18.341Z,61.55
2017-12-19T07:39:45.569Z,68.15
2017-12-19T07:42:12.814Z,63.10
2017-12-19T07:44:40.045Z,63.97
2017-12-19T07:47:07.342Z,59.20
2017-12-19T07:49:34.578Z,62.10
2017-12-19T07:52:01.816Z,64.97
2017-12-19T07:54:29.053Z,48.80
2017-12-19T07:56:56.286Z,53.40
2017-12-19T07:59:23.523Z,47.50
2017-12-19T08:01:50.765Z,46.28
2017-12-19T08:04:17.994Z,51.67
2017-12-19T08:06:45.238Z,48.65
2017-12-19T08:09:12.474Z,63.75
2017-12-19T08:11:39.701Z,68.25
2017-12-19T08:14:06.941Z,62.38
2017-12-19T08:16:34.171Z,55.22
2017-12-19T08:19:01.512Z,58.87
2017-12-19T08:21:28.762Z,50.58
2017-12-19T08:23:56.005Z,55.90
2017-12-19T08:26:23.277Z,51.17
2017-12-19T08:28:50.518Z,55.05
2017-12-19T08:31:17.745Z,50.97
2017-12-19T08:33:44.993Z,55.42
2017-12-19T08:36:12.223Z,51.83
2017-12-19T08:38:39.457Z,50.33
2017-12-19T08:41:06.697Z,46.88
2017-12-19T08:43:33.929Z,53.63
2017-12-19T08:46:01.167Z,55.25
2017-12-19T08:48:28.403Z,47.42
2017-12-19T08:50:55.644Z,59.92
2017-12-19T08:53:22.877Z,49.53
2017-12-19T08:55:50.106Z,56.60
2017-12-19T08:58:17.443Z,57.40
2017-12-19T09:00:44.670Z,55.30
2017-12-19T09:03:11.914Z,60.38
2017-12-19T09:05:39.145Z,59.03
2017-12-19T09:08:06.446Z,54.95
2017-12-19T09:10:33.737Z,84.07
2017-12-19T09:13:00.939Z,83.55
2017-12-19T09:15:28.171Z,59.47
2017-12-19T09:17:55.418Z,72.53
2017-12-19T09:20:22.705Z,74.95
2017-12-19T09:22:49.957Z,62.17
2017-12-19T09:25:17.195Z,56.42
2017-12-19T09:27:44.473Z,53.13
2017-12-19T09:30:11.713Z,54.10
2017-12-19T09:32:38.951Z,56.55
2017-12-19T09:35:06.189Z,59.38
2017-12-19T09:37:33.422Z,61.50
2017-12-19T09:40:00.658Z,60.08
2017-12-19T09:42:27.885Z,60.92
2017-12-19T09:44:55.135Z,55.45
2017-12-19T09:47:22.357Z,53.17
2017-12-19T09:49:49.601Z,59.78
2017-12-19T09:52:16.837Z,62.30
2017-12-19T09:54:44.074Z,57.65
2017-12-19T09:57:11.313Z,52.35
2017-12-19T09:59:38.552Z,61.15
2017-12-19T10:02:05.780Z,48.55
2017-12-19T10:04:33.026Z,52.85
2017-12-19T10:07:00.258Z,54.55
2017-12-19T10:09:27.600Z,65.78
2017-12-19T10:11:54.813Z,57.62
2017-12-19T10:14:22.053Z,53.58
2017-12-19T10:16:49.300Z,52.10
2017-12-19T10:19:16.533Z,47.22
2017-12-19T10:21:43.770Z,39.28
2017-12-19T10:24:11.000Z,49.92
2017-12-19T10:26:38.313Z,44.75
2017-12-19T10:29:05.542Z,55.25
2017-12-19T10:31:32.777Z,50.28
2017-12-19T10:34:00.016Z,43.03
2017-12-19T10:36:27.251Z,50.55
2017-12-19T10:38:54.478Z,48.85
2017-12-19T10:41:21.809Z,37.53
2017-12-19T10:43:49.047Z,56.53
2017-12-19T10:46:16.288Z,43.53
2017-12-19T10:48:43.574Z,45.33
2017-12-19T10:51:10.809Z,46.72
2017-12-19T10:53:38.042Z,38.22
2017-12-19T10:56:05.320Z,49.70
2017-12-19T10:58:32.581Z,41.80
2017-12-19T11:00:59.930Z,44.25
2017-12-19T11:03:27.158Z,47.90
2017-12-19T11:05:54.405Z,43.42
2017-12-19T11:08:21.640Z,43.28
2017-12-19T11:10:48.877Z,44.97
2017-12-19T11:13:16.106Z,45.75
2017-12-19T11:15:43.341Z,47.22
2017-12-19T11:18:10.573Z,38.90
2017-12-19T11:20:37.813Z,40.58
2017-12-19T11:23:05.037Z,37.85
2017-12-19T11:25:32.352Z,49.88
2017-12-19T11:27:59.586Z,37.40
2017-12-19T11:30:26.824Z,38.80
2017-12-19T11:32:54.061Z,35.88
2017-12-19T11:35:21.356Z,41.30
2017-12-19T11:37:48.590Z,42.35
2017-12-19T11:40:15.819Z,42.33
2017-12-19T11:42:43.058Z,39.40
2017-12-19T11:45:10.295Z,43.30
2017-12-19T11:47:37.631Z,37.47
2017-12-19T11:50:04.850Z,41.40
2017-12-19T11:52:32.090Z,43.80
2017-12-19T11:54:59.369Z,38.03
2017-12-19T11:57:26.721Z,39.17
2017-12-19T11:59:53.950Z,35.38
2017-12-19T12:02:21.231Z,29.70
2017-12-19T12:04:48.457Z,35.08
2017-12-19T12:07:15.702Z,30.25
2017-12-19T12:09:42.933Z,33.47
2017-12-19T12:12:10.178Z,36.50
2017-12-19T12:14:37.406Z,41.17
2017-12-19T12:17:04.644Z,37.78
2017-12-19T12:19:31.880Z,36.97
2017-12-19T12:21:59.113Z,37.15
2017-12-19T12:24:26.306Z,38.80
2017-12-19T12:26:53.606Z,36.13
2017-12-19T12:29:20.832Z,36.22
2017-12-19T12:31:48.151Z,37.72
2017-12-19T12:34:15.385Z,35.08
2017-12-19T12:36:42.622Z,44.20
2017-12-19T12:39:09.849Z,41.42
2017-12-19T12:41:37.093Z,35.60
2017-12-19T12:44:04.324Z,35.28
2017-12-19T12:46:31.661Z,38.05
2017-12-19T12:48:58.901Z,37.05
2017-12-19T12:51:26.134Z,42.50
2017-12-19T12:53:53.413Z,34.85
2017-12-19T12:56:20.651Z,35.30
2017-12-19T12:58:47.890Z,34.15
2017-12-19T13:01:15.118Z,29.73
2017-12-19T13:03:42.357Z,32.40
2017-12-19T13:06:09.585Z,35.40
2017-12-19T13:08:36.931Z,37.90
2017-12-19T13:11:04.157Z,39.00
2017-12-19T13:13:31.401Z,32.25
2017-12-19T13:15:58.629Z,34.42
2017-12-19T13:18:25.872Z,35.08
2017-12-19T13:20:53.106Z,39.00
2017-12-19T13:23:20.346Z,37.75
2017-12-19T13:25:47.569Z,39.28
2017-12-19T13:28:14.838Z,38.92
2017-12-19T13:30:42.065Z,42.05
2017-12-19T13:33:09.315Z,45.67
2017-12-19T13:35:36.544Z,42.80
2017-12-19T13:38:03.847Z,51.97
2017-12-19T13:40:31.087Z,50.53
2017-12-19T13:42:58.317Z,44.72
2017-12-19T13:45:25.556Z,52.00
2017-12-19T13:47:52.853Z,52.05
2017-12-19T13:50:20.090Z,52.13
2017-12-19T13:52:47.370Z,57.62
2017-12-19T13:55:14.617Z,59.03
2017-12-19T13:57:41.841Z,49.30
2017-12-19T14:00:09.113Z,46.65
2017-12-19T14:02:36.347Z,50.63
2017-12-19T14:05:03.617Z,44.15
2017-12-19T14:07:30.859Z,46.08
2017-12-19T14:09:58.097Z,37.45
2017-12-19T14:12:25.339Z,43.90
2017-12-19T14:14:52.581Z,56.85
2017-12-19T14:17:19.801Z,45.60
2017-12-19T14:19:47.041Z,46.20
2017-12-19T14:22:14.270Z,44.25
2017-12-19T14:24:41.525Z,54.85
2017-12-19T14:27:08.757Z,65.07
2017-12-19T14:29:35.988Z,79.45
2017-12-19T14:32:03.221Z,46.42
2017-12-19T14:34:30.461Z,47.92
2017-12-19T14:36:57.701Z,39.65
2017-12-19T14:39:25.042Z,48.40
2017-12-19T14:41:52.287Z,43.17
2017-12-19T14:44:19.564Z,32.22
2017-12-19T14:46:46.904Z,36.90
2017-12-19T14:49:14.147Z,43.53
2017-12-19T14:51:41.410Z,28.65
2017-12-19T14:54:08.646Z,31.65
2017-12-19T14:56:35.914Z,25.55
2017-12-19T14:59:03.145Z,35.67
2017-12-19T15:01:30.386Z,45.28
2017-12-19T15:03:57.619Z,40.88
2017-12-19T15:06:25.397Z,33.05
2017-12-19T15:08:52.625Z,39.78
2017-12-19T15:11:19.884Z,45.67
2017-12-19T15:13:47.114Z,45.40
2017-12-19T15:16:14.450Z,41.70
2017-12-19T15:18:41.694Z,50.55
2017-12-19T15:21:08.933Z,49.58
2017-12-19T15:23:36.170Z,50.55
2017-12-19T15:26:03.423Z,40.12
2017-12-19T15:28:30.658Z,44.20
2017-12-19T15:30:57.950Z,37.67
2017-12-19T15:33:25.197Z,35.40
2017-12-19T15:35:52.421Z,35.53
2017-12-19T15:38:19.664Z,39.35
2017-12-19T15:40:46.889Z,34.05
2017-12-19T15:43:14.126Z,34.33
2017-12-19T15:45:41.455Z,33.88
2017-12-19T15:48:08.698Z,33.25
2017-12-19T15:50:35.933Z,34.72
2017-12-19T15:53:03.173Z,33.83
2017-12-19T15:55:30.496Z,33.17
2017-12-19T15:57:57.826Z,36.10
2017-12-19T16:00:25.058Z,32.15
2017-12-19T16:02:52.298Z,39.78
2017-12-19T16:05:19.520Z,37.67
2017-12-19T16:07:46.758Z,36.78
2017-12-19T16:10:13.985Z,42.65
2017-12-19T16:12:41.221Z,43.25
2017-12-19T16:15:08.450Z,46.90
2017-12-19T16:17:35.738Z,47.92
2017-12-19T16:20:02.990Z,54.60
2017-12-19T16:22:30.210Z,43.78
2017-12-19T16:24:57.443Z,56.95
2017-12-19T16:27:24.669Z,51.15
2017-12-19T16:29:51.905Z,44.40
2017-12-19T16:32:19.137Z,48.95
2017-12-19T16:34:46.378Z,47.33
2017-12-19T16:37:13.618Z,46.67
2017-12-19T16:39:40.862Z,50.00
2017-12-19T16:42:08.091Z,51.80
2017-12-19T16:44:35.402Z,53.10
2017-12-19T16:47:02.629Z,64.60
2017-12-19T16:49:29.879Z,51.75
2017-12-19T16:51:57.105Z,56.80
2017-12-19T16:54:24.350Z,50.00
2017-12-19T16:56:52.710Z,50.40
2017-12-19T16:59:19.945Z,56.63
2017-12-19T17:01:47.178Z,56.95
2017-12-19T17:04:14.439Z,53.90
2017-12-19T17:06:41.666Z,60.30
2017-12-19T17:09:08.905Z,55.47
2017-12-19T17:11:36.129Z,61.00
2017-12-19T17:14:03.363Z,56.20
2017-12-19T17:16:30.596Z,54.40
2017-12-19T17:18:57.857Z,43.90
2017-12-19T17:21:25.135Z,51.60
2017-12-19T17:23:52.499Z,54.95
2017-12-19T17:26:19.809Z,50.20
2017-12-19T17:28:47.037Z,50.20
2017-12-19T17:31:14.273Z,54.63
2017-12-19T17:33:41.501Z,56.72
2017-12-19T17:36:08.742Z,54.50
2017-12-19T17:38:35.980Z,53.63
2017-12-19T17:41:03.215Z,46.90
2017-12-19T17:43:30.442Z,48.13
2017-12-19T17:45:57.722Z,56.08
2017-12-19T17:48:24.977Z,58.20
2017-12-19T17:50:52.208Z,53.90
2017-12-19T17:53:20.976Z,47.20
2017-12-19T17:55:48.507Z,53.55
2017-12-19T17:58:15.777Z,49.03
2017-12-19T18:00:43.006Z,54.42
2017-12-19T18:03:10.281Z,58.33
2017-12-19T18:05:37.513Z,56.35
2017-12-19T18:08:04.788Z,53.78
2017-12-19T18:10:32.045Z,57.13
2017-12-19T18:12:59.317Z,59.30
2017-12-19T18:15:26.580Z,48.92
2017-12-19T18:17:53.854Z,53.80
2017-12-19T18:20:21.077Z,49.58
2017-12-19T18:22:48.319Z,54.17
2017-12-19T18:25:15.597Z,44.00
2017-12-19T18:27:42.894Z,53.25
2017-12-19T18:30:10.114Z,61.30
2017-12-19T18:32:37.450Z,57.15
2017-12-19T18:35:04.728Z,64.55
2017-12-19T18:37:32.012Z,104.35
2017-12-19T18:39:59.225Z,119.60
2017-12-19T18:42:26.500Z,83.32
2017-12-19T18:44:53.763Z,68.50
2017-12-19T18:47:21.070Z,70.22
2017-12-19T18:49:48.373Z,76.12
2017-12-19T18:52:15.673Z,77.87
2017-12-19T18:54:42.901Z,78.55
2017-12-19T18:57:10.188Z,79.68
2017-12-19T18:59:37.402Z,75.35
2017-12-19T19:02:04.728Z,85.87
2017-12-19T19:04:31.989Z,89.18
2017-12-19T19:06:59.265Z,89.70
2017-12-19T19:09:26.483Z,77.15
2017-12-19T19:11:53.797Z,81.37
2017-12-19T19:14:21.085Z,77.53
2017-12-19T19:16:48.441Z,75.07
2017-12-19T19:19:15.805Z,64.45
2017-12-19T19:21:43.089Z,67.20
2017-12-19T19:24:10.360Z,68.65
2017-12-19T19:26:37.665Z,58.20
2017-12-19T19:29:04.935Z,52.38
2017-12-19T19:31:32.200Z,48.67
2017-12-19T19:33:59.478Z,46.75
2017-12-19T19:36:26.751Z,43.65
2017-12-19T19:38:54.026Z,41.42
2017-12-19T19:41:21.284Z,39.65
2017-12-19T19:43:48.553Z,39.35
2017-12-19T19:46:15.771Z,45.50
2017-12-19T19:48:43.053Z,43.78
2017-12-19T19:51:10.308Z,45.88
2017-12-19T19:53:37.632Z,45.78
2017-12-19T19:56:04.912Z,49.67
2017-12-19T19:58:32.188Z,62.67
2017-12-19T20:00:59.514Z,57.20
2017-12-19T20:03:26.793Z,47.45
2017-12-19T20:05:54.047Z,53.33
2017-12-19T20:08:21.329Z,47.20
2017-12-19T20:10:48.610Z,49.33
2017-12-19T20:13:15.884Z,45.35
2017-12-19T20:15:43.153Z,48.25
2017-12-19T20:18:10.426Z,43.03
2017-12-19T20:20:37.688Z,42.97
2017-12-19T20:23:05.027Z,40.90
2017-12-19T20:25:32.306Z,44.00
2017-12-19T20:27:59.573Z,47.55
2017-12-19T20:30:26.799Z,49.97
2017-12-19T20:32:54.073Z,92.18
2017-12-19T20:35:21.343Z,57.92
2017-12-19T20:37:48.671Z,57.83
2017-12-19T20:40:15.945Z,56.90
2017-12-19T20:42:43.161Z,64.87
2017-12-19T20:45:10.447Z,60.22
2017-12-19T20:47:37.709Z,63.27
2017-12-19T20:50:04.980Z,55.12
2017-12-19T20:52:32.244Z,54.42
2017-12-19T20:54:59.530Z,58.87
2017-12-19T20:57:26.742Z,53.53
2017-12-19T20:59:54.030Z,50.35
2017-12-19T21:02:21.296Z,51.00
2017-12-19T21:04:48.644Z,52.30
2017-12-19T21:07:15.909Z,53.40
2017-12-19T21:09:43.188Z,46.90
2017-12-19T21:12:10.467Z,47.62
2017-12-19T21:14:37.754Z,41.30
2017-12-19T21:17:05.012Z,41.13
2017-12-19T21:19:32.288Z,47.58
2017-12-19T21:21:59.544Z,46.90
2017-12-19T21:24:26.882Z,46.70
2017-12-19T21:26:54.154Z,42.20
2017-12-19T21:29:21.481Z,48.40
2017-12-19T21:31:48.853Z,45.33
2017-12-19T21:34:16.202Z,41.80
2017-12-19T21:36:43.478Z,42.60
2017-12-19T21:39:10.747Z,46.88
2017-12-19T21:41:38.052Z,55.88
2017-12-19T21:44:05.310Z,54.08
2017-12-19T21:46:32.652Z,54.65
2017-12-19T21:48:59.912Z,46.95
2017-12-19T21:51:27.145Z,51.30
2017-12-19T21:53:54.428Z,50.63
2017-12-19T21:56:21.654Z,45.95
2017-12-19T21:58:48.932Z,42.45
2017-12-19T22:02:37.469Z,43.83
2017-12-19T22:05:04.749Z,44.90
2017-12-19T22:07:32.012Z,38.95
2017-12-19T22:09:59.280Z,34.60
2017-12-19T22:12:26.594Z,32.92
2017-12-19T22:14:53.869Z,37.35
2017-12-19T22:17:21.148Z,33.40
2017-12-19T22:19:48.411Z,29.15
2017-12-19T22:22:15.683Z,25.25
2017-12-19T22:24:42.956Z,32.55
2017-12-19T22:27:10.310Z,26.23
2017-12-19T22:29:37.574Z,29.12
2017-12-19T22:32:04.848Z,25.58
2017-12-19T22:34:32.130Z,25.90
2017-12-19T22:36:59.360Z,29.65
2017-12-19T22:39:26.581Z,26.58
2017-12-19T22:41:53.868Z,25.50
2017-12-19T22:44:21.137Z,26.27
2017-12-19T22:46:48.410Z,25.40
2017-12-19T22:49:15.684Z,22.62
2017-12-19T22:51:43.033Z,27.62
2017-12-19T22:54:10.306Z,25.00
2017-12-19T22:56:37.588Z,28.05
2017-12-19T22:59:04.860Z,26.87
2017-12-19T23:01:32.153Z,25.00
2017-12-19T23:03:59.419Z,17.15
2017-12-19T23:06:26.747Z,18.77
2017-12-19T23:08:54.109Z,17.10
2017-12-19T23:11:21.338Z,17.60
2017-12-19T23:13:48.611Z,12.10
2017-12-19T23:16:15.829Z,11.77
2017-12-19T23:18:43.153Z,14.95
2017-12-19T23:21:10.435Z,11.68
2017-12-19T23:23:37.710Z,13.82
2017-12-19T23:26:04.922Z,11.77
2017-12-19T23:28:33.125Z,12.25
2017-12-19T23:31:00.390Z,10.57
2017-12-19T23:33:27.698Z,15.82
2017-12-19T23:35:54.926Z,15.77
2017-12-19T23:38:22.212Z,10.88
2017-12-19T23:40:49.427Z,9.45
2017-12-19T23:43:16.744Z,7.57
2017-12-19T23:45:43.962Z,12.20
2017-12-19T23:48:11.241Z,9.02
2017-12-19T23:50:38.446Z,9.18
2017-12-19T23:53:05.707Z,9.88
2017-12-19T23:55:32.953Z,9.05
2017-12-19T23:58:00.190Z,10.10
